Current Weather

Bridgeport/Sikorsky

Bridgeport, Connecticut (KBDR)

Report from: Tuesday, June 18, 2024 6:52 AM EDT
Current time: Tuesday, June 18, 2024 7:14 AM EDT

Nearby weather – Weather history – Daily summaries
Weather forecast

Temperature21.1°C (70.0°F)
Dew point18.3°C (64.9°F)
Winds 6 kts (3.1 m/s, 6.9 mph) Southwest (220°)
Visibility10 mi. (16.1 km)
Clouds Sky clear
Altimeter30.22 in.Hg (1023 mB)
Relative humidity84 %
Density altitude654 ft. (199 m)
Sea-level pressure102.4 kPa (1024 mB, 30.22 in.Hg)
Remarks Automated weather observing station with precipitation discriminator
Flight conditions Visual Meteorological Conditions
Raw dataKBDR 181052Z 22006KT 10SM CLR 21/18 A3022 RMK AO2 SLP235 T02110183
An error has occurred. This application may no longer respond until reloaded. Reload 🗙